Time;durP1;ratioP1;P1;durP2;ratioP2;P2;SDS_P1;SDS_P2;PMS_P1;PMS_P2;Temp;Humidity;BMP_temperature;BMP_pressure;BME280_temperature;BME280_humidity;BME280_pressure;Samples;Min_cycle;Max_cycle;Signal;HPM_P1;HPM_P2
2022/10/20 00:01:52;;;;;;;11.60;9.40;;;14.80;85.70;;;;;;5079548;28;20029;-62
2022/10/20 00:04:18;;;;;;;14.48;9.80;;;14.80;85.70;;;;;;5078251;28;20465;-62
2022/10/20 00:06:43;;;;;;;16.88;9.63;;;14.80;85.90;;;;;;5077082;28;20117;-59
2022/10/20 00:09:09;;;;;;;13.88;10.02;;;14.80;85.80;;;;;;5076492;28;20040;-61
2022/10/20 00:11:35;;;;;;;12.18;9.75;;;14.80;85.90;;;;;;5075654;28;20032;-62
2022/10/20 00:14:02;;;;;;;11.85;9.75;;;14.80;85.80;;;;;;5075462;28;20424;-62
2022/10/20 00:16:30;;;;;;;11.60;9.57;;;14.80;85.70;;;;;;5073931;27;20450;-60
2022/10/20 00:18:57;;;;;;;11.70;9.88;;;14.80;85.70;;;;;;5074433;28;20044;-62
2022/10/20 00:21:25;;;;;;;14.25;9.38;;;14.80;85.60;;;;;;5074446;28;20043;-59
2022/10/20 00:23:51;;;;;;;12.70;9.98;;;14.80;85.50;;;;;;5075209;28;20085;-62
2022/10/20 00:26:20;;;;;;;16.88;10.70;;;14.80;85.40;;;;;;5073190;28;20045;-62
2022/10/20 00:28:46;;;;;;;13.45;9.73;;;14.90;85.50;;;;;;5073386;28;20040;-61
2022/10/20 00:31:12;;;;;;;15.48;10.68;;;14.80;85.30;;;;;;5075422;28;20044;-61
2022/10/20 00:33:38;;;;;;;19.42;10.60;;;14.80;86.20;;;;;;5072407;28;20135;-62
2022/10/20 00:36:07;;;;;;;11.65;9.75;;;14.80;85.30;;;;;;5076007;28;20491;-60
2022/10/20 00:38:33;;;;;;;13.63;10.35;;;14.80;85.30;;;;;;5073603;27;20047;-59
2022/10/20 00:41:04;;;;;;;14.07;9.65;;;14.80;85.30;;;;;;5074196;28;20040;-62
2022/10/20 00:43:48;;;;;;;12.88;9.88;;;14.80;85.30;;;;;;5075471;28;20047;-61
2022/10/20 00:46:17;;;;;;;14.05;10.27;;;14.80;85.50;;;;;;5073922;28;20081;-61
2022/10/20 00:48:46;;;;;;;14.57;10.65;;;14.80;85.30;;;;;;5071024;28;20166;-62
2022/10/20 00:51:15;;;;;;;14.60;10.25;;;14.80;85.30;;;;;;5075387;28;20432;-61
2022/10/20 00:53:42;;;;;;;12.88;10.07;;;14.80;85.40;;;;;;5074057;28;20474;-61
2022/10/20 00:56:08;;;;;;;12.63;10.27;;;14.80;85.40;;;;;;5072846;28;20040;-61
2022/10/20 00:58:34;;;;;;;13.88;11.05;;;14.80;85.40;;;;;;5072967;28;20538;-61
2022/10/20 01:01:00;;;;;;;14.00;10.07;;;14.80;85.40;;;;;;5076043;28;20553;-62
2022/10/20 01:03:48;;;;;;;13.13;9.88;;;14.80;85.50;;;;;;5076358;28;20085;-61
2022/10/20 01:06:16;;;;;;;15.15;10.70;;;14.80;85.50;;;;;;5072222;28;20047;-62
2022/10/20 01:08:41;;;;;;;15.35;10.90;;;14.80;85.20;;;;;;5072859;28;20068;-61
2022/10/20 01:11:10;;;;;;;16.65;11.48;;;14.80;85.20;;;;;;5070453;28;20159;-61
2022/10/20 01:13:51;;;;;;;19.63;11.02;;;14.80;85.20;;;;;;5075152;28;20051;-61
2022/10/20 01:16:24;;;;;;;12.82;10.55;;;14.80;85.30;;;;;;5073254;28;20045;-60
2022/10/20 01:18:53;;;;;;;14.32;10.95;;;14.80;85.20;;;;;;5070920;28;20055;-61
2022/10/20 01:21:30;;;;;;;16.13;11.35;;;14.70;85.00;;;;;;5073170;28;20040;-60
2022/10/20 01:24:04;;;;;;;13.15;11.23;;;14.70;85.20;;;;;;5075296;28;20460;-61
2022/10/20 01:26:30;;;;;;;14.35;11.15;;;14.70;85.10;;;;;;5075733;28;20032;-62
2022/10/20 01:29:18;;;;;;;15.95;11.38;;;14.70;86.00;;;;;;5072487;28;20093;-62
2022/10/20 01:32:16;;;;;;;15.43;11.57;;;14.70;85.20;;;;;;5075416;28;20032;-61
2022/10/20 01:34:52;;;;;;;16.52;11.57;;;14.70;85.20;;;;;;5066780;28;20059;-62
2022/10/20 01:37:35;;;;;;;13.68;10.93;;;14.70;85.10;;;;;;5074230;28;20090;-62
2022/10/20 01:40:28;;;;;;;16.25;10.73;;;14.70;85.20;;;;;;5072411;28;20299;-62
2022/10/20 01:42:58;;;;;;;15.45;11.18;;;14.70;85.10;;;;;;5072781;28;20036;-62
2022/10/20 01:45:28;;;;;;;14.95;11.85;;;14.70;85.20;;;;;;5073689;28;20059;-63
2022/10/20 01:47:55;;;;;;;16.25;11.85;;;14.70;85.20;;;;;;5071557;28;20040;-62
2022/10/20 01:50:22;;;;;;;15.15;10.63;;;14.60;85.20;;;;;;5073747;28;20295;-61
2022/10/20 01:52:48;;;;;;;19.55;11.73;;;14.60;85.20;;;;;;5073505;28;20526;-60
2022/10/20 01:55:17;;;;;;;15.10;11.23;;;14.70;85.30;;;;;;5074338;28;20036;-61
2022/10/20 01:58:20;;;;;;;15.05;11.45;;;14.70;85.40;;;;;;5073188;28;20067;-62
2022/10/20 02:00:47;;;;;;;16.98;11.40;;;14.70;85.40;;;;;;5073753;28;20036;-62
2022/10/20 02:03:24;;;;;;;17.45;11.38;;;14.60;85.10;;;;;;5074520;28;20039;-60
2022/10/20 02:06:09;;;;;;;14.77;11.73;;;14.70;85.20;;;;;;5072744;28;20047;-62
2022/10/20 02:08:51;;;;;;;15.18;11.52;;;14.60;85.10;;;;;;5078864;28;20143;-62
2022/10/20 02:11:58;;;;;;;16.52;11.85;;;14.60;85.30;;;;;;5078516;28;20512;-62
2022/10/20 02:14:24;;;;;;;16.67;10.82;;;14.60;85.50;;;;;;5074892;28;20046;-62
2022/10/20 02:16:59;;;;;;;20.60;12.50;;;14.70;85.30;;;;;;5076873;28;20123;-63
2022/10/20 02:19:30;;;;;;;14.80;11.65;;;14.60;85.30;;;;;;5078433;28;20067;-61
2022/10/20 02:21:56;;;;;;;14.50;11.27;;;14.60;85.20;;;;;;5078032;28;20553;-60
2022/10/20 02:24:33;;;;;;;16.10;11.30;;;14.70;85.30;;;;;;5074929;28;20036;-61
2022/10/20 02:27:03;;;;;;;14.65;10.93;;;14.70;85.30;;;;;;5074440;27;20375;-62
2022/10/20 02:29:34;;;;;;;16.48;11.38;;;14.70;85.30;;;;;;5077310;28;20035;-61
2022/10/20 02:32:00;;;;;;;14.90;11.30;;;14.70;85.20;;;;;;5081523;28;20041;-60
2022/10/20 02:34:26;;;;;;;18.77;11.60;;;14.70;85.10;;;;;;5076678;28;20036;-62
2022/10/20 02:36:55;;;;;;;15.68;11.38;;;14.70;85.00;;;;;;5075885;28;20043;-61
2022/10/20 02:39:21;;;;;;;15.07;11.32;;;14.60;85.00;;;;;;5078577;28;20500;-62
2022/10/20 02:41:46;;;;;;;17.02;11.40;;;14.60;85.00;;;;;;5075145;28;20043;-62
2022/10/20 02:44:12;;;;;;;15.35;11.65;;;14.60;84.90;;;;;;5077960;28;20039;-61
2022/10/20 02:46:37;;;;;;;15.25;10.77;;;14.60;85.00;;;;;;5078329;28;20100;-60
2022/10/20 02:49:03;;;;;;;16.45;11.18;;;14.60;85.10;;;;;;5074377;28;20098;-62
2022/10/20 02:51:28;;;;;;;18.67;11.43;;;14.60;85.10;;;;;;5077668;28;20036;-60
2022/10/20 02:53:54;;;;;;;17.27;11.50;;;14.60;85.10;;;;;;5074913;28;20090;-61
2022/10/20 02:56:21;;;;;;;17.50;11.23;;;14.60;85.00;;;;;;5078515;28;20043;-61
2022/10/20 02:58:47;;;;;;;14.45;10.73;;;14.60;85.10;;;;;;5075992;28;20036;-61
2022/10/20 03:01:13;;;;;;;16.45;11.50;;;14.60;85.00;;;;;;5077599;28;20038;-62
2022/10/20 03:03:38;;;;;;;15.57;11.93;;;14.60;84.80;;;;;;5074780;28;20028;-61
2022/10/20 03:06:12;;;;;;;17.20;11.88;;;14.50;84.80;;;;;;5073810;28;20101;-61
2022/10/20 03:08:38;;;;;;;18.02;11.68;;;14.60;84.80;;;;;;5077743;28;20422;-62
2022/10/20 03:11:04;;;;;;;19.05;12.60;;;14.50;84.80;;;;;;5074549;28;20048;-62
2022/10/20 03:13:30;;;;;;;18.50;11.98;;;14.50;84.70;;;;;;5075500;28;20040;-62
2022/10/20 03:15:55;;;;;;;17.85;12.20;;;14.50;84.80;;;;;;5074725;28;20036;-62
2022/10/20 03:18:21;;;;;;;19.63;12.30;;;14.40;84.90;;;;;;5076382;28;20676;-61
2022/10/20 03:20:50;;;;;;;18.30;12.75;;;14.40;84.90;;;;;;5073164;28;20552;-62
2022/10/20 03:23:15;;;;;;;19.25;12.50;;;14.40;85.10;;;;;;5076213;28;20040;-62
2022/10/20 03:25:41;;;;;;;17.98;12.30;;;14.40;85.10;;;;;;5075119;28;20573;-62
2022/10/20 03:28:06;;;;;;;21.90;13.25;;;14.40;85.20;;;;;;5074885;28;20063;-61
2022/10/20 03:30:32;;;;;;;25.33;13.77;;;14.30;85.00;;;;;;5073609;28;20032;-62
2022/10/20 03:32:57;;;;;;;19.80;13.32;;;14.30;84.90;;;;;;5075399;28;20391;-61
2022/10/20 03:35:23;;;;;;;20.58;13.77;;;14.40;85.00;;;;;;5073810;28;20043;-62
2022/10/20 03:37:49;;;;;;;19.77;13.70;;;14.30;85.10;;;;;;5074878;28;20067;-60
2022/10/20 03:40:14;;;;;;;25.90;13.90;;;14.20;85.10;;;;;;5074436;28;20108;-62
2022/10/20 03:42:40;;;;;;;26.52;14.43;;;14.20;85.20;;;;;;5074644;28;20028;-61
2022/10/20 03:45:06;;;;;;;22.23;14.05;;;14.20;85.20;;;;;;5075846;28;20303;-62
2022/10/20 03:47:31;;;;;;;24.88;14.05;;;14.20;85.40;;;;;;5074676;28;20107;-61
2022/10/20 03:49:57;;;;;;;25.08;13.90;;;14.10;85.50;;;;;;5074286;28;20392;-61
2022/10/20 03:52:23;;;;;;;27.98;15.27;;;14.20;85.50;;;;;;5072005;28;20032;-62
2022/10/20 03:54:48;;;;;;;28.42;14.10;;;14.10;85.40;;;;;;5075211;28;20566;-61
2022/10/20 03:57:14;;;;;;;27.13;14.93;;;14.10;86.30;;;;;;5073474;28;20596;-62
2022/10/20 03:59:39;;;;;;;27.83;14.57;;;14.10;85.50;;;;;;5075065;28;20067;-62
2022/10/20 04:02:05;;;;;;;27.35;15.07;;;14.10;85.50;;;;;;5071723;28;20113;-62
2022/10/20 04:04:30;;;;;;;26.77;15.40;;;14.10;85.40;;;;;;5073477;28;20036;-62
2022/10/20 04:06:56;;;;;;;26.25;14.25;;;14.20;85.40;;;;;;5072646;28;20032;-62
2022/10/20 04:09:21;;;;;;;31.23;16.38;;;14.10;85.40;;;;;;5076811;28;20040;-60
2022/10/20 04:11:47;;;;;;;31.30;15.52;;;14.10;85.50;;;;;;5073299;28;20081;-62
2022/10/20 04:14:13;;;;;;;33.88;15.70;;;14.00;85.30;;;;;;5075350;28;20055;-61
2022/10/20 04:16:38;;;;;;;33.47;16.67;;;13.90;85.50;;;;;;5073375;28;20280;-61
2022/10/20 04:19:04;;;;;;;38.33;18.08;;;13.90;85.90;;;;;;5072680;28;20411;-61
2022/10/20 04:21:29;;;;;;;28.25;17.25;;;13.90;87.10;;;;;;5076073;28;20359;-62
2022/10/20 04:23:55;;;;;;;30.20;16.50;;;13.80;86.40;;;;;;5072552;28;20385;-61
2022/10/20 04:26:21;;;;;;;30.67;17.00;;;13.80;86.40;;;;;;5074462;28;20044;-61
2022/10/20 04:28:46;;;;;;;28.48;16.27;;;13.80;86.40;;;;;;5071342;28;20036;-62
2022/10/20 04:31:12;;;;;;;30.98;17.42;;;13.70;86.50;;;;;;5069172;28;20056;-61
2022/10/20 04:33:37;;;;;;;35.65;16.42;;;13.70;86.70;;;;;;5074387;28;20040;-62
2022/10/20 04:36:05;;;;;;;29.98;16.70;;;13.70;86.60;;;;;;5075177;28;20040;-62
2022/10/20 04:38:33;;;;;;;29.75;15.82;;;13.70;86.70;;;;;;5075378;28;20036;-62
2022/10/20 04:41:00;;;;;;;29.35;16.40;;;13.70;87.70;;;;;;5073703;28;20035;-62
2022/10/20 04:43:26;;;;;;;29.60;15.77;;;13.70;86.90;;;;;;5075114;28;20392;-60
2022/10/20 04:45:57;;;;;;;34.50;16.35;;;13.70;86.90;;;;;;5076055;28;20088;-61
2022/10/20 04:48:23;;;;;;;31.30;16.55;;;13.80;87.00;;;;;;5075533;28;20078;-62
2022/10/20 04:51:09;;;;;;;26.70;14.93;;;13.80;86.90;;;;;;5074875;28;20488;-61
2022/10/20 04:53:35;;;;;;;27.27;15.32;;;13.80;87.30;;;;;;5074751;28;20044;-59
2022/10/20 04:56:01;;;;;;;28.30;16.23;;;13.80;86.90;;;;;;5075659;28;20500;-61
2022/10/20 04:58:27;;;;;;;27.48;15.65;;;13.80;87.00;;;;;;5075964;28;20483;-60
2022/10/20 05:00:53;;;;;;;30.65;16.05;;;13.90;87.10;;;;;;5077400;28;20092;-60
2022/10/20 05:03:19;;;;;;;37.88;16.15;;;13.80;87.20;;;;;;5077977;28;20043;-61
2022/10/20 05:05:46;;;;;;;28.67;16.60;;;13.80;87.10;;;;;;5075185;28;20052;-61
2022/10/20 05:08:11;;;;;;;29.25;15.95;;;13.80;87.20;;;;;;5077897;28;20041;-61
2022/10/20 05:10:37;;;;;;;28.40;16.70;;;13.80;87.10;;;;;;5079408;28;20499;-61
2022/10/20 05:13:03;;;;;;;42.05;17.02;;;13.80;87.10;;;;;;5077666;28;20044;-62
2022/10/20 05:15:29;;;;;;;28.73;16.85;;;13.80;87.30;;;;;;5074695;28;20036;-61
2022/10/20 05:17:54;;;;;;;37.35;17.15;;;13.70;87.30;;;;;;5073030;28;20040;-61
2022/10/20 05:20:20;;;;;;;33.08;16.98;;;13.70;87.30;;;;;;5074698;28;20036;-62
2022/10/20 05:22:45;;;;;;;39.78;17.15;;;13.70;87.50;;;;;;5075342;28;20119;-61
2022/10/20 05:25:11;;;;;;;32.33;16.17;;;13.60;87.40;;;;;;5076528;28;20035;-60
2022/10/20 05:27:36;;;;;;;33.40;16.70;;;13.60;87.60;;;;;;5073786;28;20415;-61
2022/10/20 05:30:02;;;;;;;31.80;16.27;;;13.50;87.80;;;;;;5075295;28;20395;-62
2022/10/20 05:32:28;;;;;;;37.75;16.13;;;13.50;88.00;;;;;;5074976;28;20036;-61
2022/10/20 05:34:54;;;;;;;28.52;16.05;;;13.50;88.00;;;;;;5073587;28;20032;-60
2022/10/20 05:37:19;;;;;;;36.47;15.90;;;13.50;88.10;;;;;;5075937;28;20078;-60
2022/10/20 05:39:45;;;;;;;29.63;15.95;;;13.40;88.10;;;;;;5073625;28;20117;-62
2022/10/20 05:42:11;;;;;;;28.55;16.83;;;13.40;88.20;;;;;;5077768;28;20614;-62
2022/10/20 05:44:36;;;;;;;43.83;16.60;;;13.40;88.50;;;;;;5077368;28;20483;-60
2022/10/20 05:47:02;;;;;;;29.75;16.42;;;13.40;88.50;;;;;;5079474;28;20035;-61
2022/10/20 05:49:28;;;;;;;26.10;14.60;;;13.40;88.70;;;;;;5079801;28;20035;-62
2022/10/20 05:51:53;;;;;;;30.95;16.23;;;13.40;88.80;;;;;;5077757;28;20116;-62
2022/10/20 05:54:19;;;;;;;25.92;14.95;;;13.40;89.00;;;;;;5078886;28;20032;-61
2022/10/20 05:56:44;;;;;;;27.52;15.43;;;13.40;89.10;;;;;;5078724;28;20036;-61
2022/10/20 05:59:10;;;;;;;32.78;15.50;;;13.40;89.10;;;;;;5079475;28;20115;-61
2022/10/20 06:01:46;;;;;;;25.58;15.88;;;13.40;89.10;;;;;;5080828;28;20115;-62
2022/10/20 06:04:14;;;;;;;24.73;14.55;;;13.50;89.20;;;;;;5080668;28;20059;-61
2022/10/20 06:06:40;;;;;;;28.48;16.10;;;13.50;89.20;;;;;;5078925;28;20221;-61
2022/10/20 06:09:07;;;;;;;24.42;14.98;;;13.50;89.20;;;;;;5079914;28;20043;-61
2022/10/20 06:11:33;;;;;;;32.22;14.48;;;13.50;89.00;;;;;;5076049;28;20032;-60
2022/10/20 06:13:59;;;;;;;26.67;15.52;;;13.60;89.00;;;;;;5079588;28;20040;-60
2022/10/20 06:16:26;;;;;;;25.52;14.20;;;13.60;88.80;;;;;;5078699;28;20049;-63
2022/10/20 06:18:52;;;;;;;28.48;15.20;;;13.60;88.90;;;;;;5077411;28;20134;-58
2022/10/20 06:21:21;;;;;;;27.48;15.40;;;13.60;88.80;;;;;;5077599;28;20036;-61
2022/10/20 06:23:47;;;;;;;29.33;15.65;;;13.60;88.70;;;;;;5077179;28;20043;-62
2022/10/20 06:26:21;;;;;;;25.42;14.75;;;13.60;88.60;;;;;;5079306;28;20056;-61
2022/10/20 06:28:49;;;;;;;32.95;15.05;;;13.60;88.80;;;;;;5076928;28;20040;-61
2022/10/20 06:31:16;;;;;;;26.10;15.23;;;13.60;88.60;;;;;;5078544;28;20052;-61
2022/10/20 06:33:42;;;;;;;26.67;14.10;;;13.70;88.60;;;;;;5078151;28;20060;-59
2022/10/20 06:36:09;;;;;;;24.98;14.18;;;13.70;88.60;;;;;;5075319;28;20048;-61
2022/10/20 06:38:35;;;;;;;28.40;16.00;;;13.60;88.60;;;;;;5078055;27;20446;-59
2022/10/20 06:41:05;;;;;;;29.50;16.45;;;13.60;88.60;;;;;;5078552;28;20063;-60
2022/10/20 06:43:30;;;;;;;29.63;15.00;;;13.60;88.60;;;;;;5077729;28;20063;-62
2022/10/20 06:46:01;;;;;;;27.85;16.58;;;13.60;88.50;;;;;;5076654;28;20052;-60
2022/10/20 06:48:27;;;;;;;36.33;15.38;;;13.60;88.60;;;;;;5076070;28;20115;-61
2022/10/20 06:50:58;;;;;;;32.78;16.40;;;13.70;88.70;;;;;;5076532;28;20043;-61
2022/10/20 06:53:25;;;;;;;38.20;16.88;;;13.70;88.80;;;;;;5079030;28;20577;-61
2022/10/20 06:56:05;;;;;;;28.92;14.93;;;13.70;88.80;;;;;;5077075;28;20036;-60
2022/10/20 06:58:31;;;;;;;28.55;14.65;;;13.60;88.80;;;;;;5078612;28;20534;-62
2022/10/20 07:01:09;;;;;;;22.65;14.68;;;13.60;88.70;;;;;;5079245;28;20096;-61
2022/10/20 07:03:36;;;;;;;27.85;15.15;;;13.60;88.90;;;;;;5079416;28;20119;-59
2022/10/20 07:06:03;;;;;;;26.48;14.57;;;13.60;89.00;;;;;;5077823;28;20037;-62
2022/10/20 07:08:30;;;;;;;29.05;14.60;;;13.60;89.20;;;;;;5078704;28;20053;-60
2022/10/20 07:11:17;;;;;;;41.45;14.43;;;13.50;89.30;;;;;;5078370;28;20044;-61
2022/10/20 07:13:43;;;;;;;28.80;13.90;;;13.50;89.70;;;;;;5074684;28;20039;-60
2022/10/20 07:16:12;;;;;;;22.85;14.65;;;13.50;89.50;;;;;;5076509;28;20527;-61
2022/10/20 07:18:38;;;;;;;26.95;15.05;;;13.50;89.80;;;;;;5075139;28;20403;-60
2022/10/20 07:21:06;;;;;;;34.22;15.23;;;13.50;89.90;;;;;;5076824;28;20062;-62
2022/10/20 07:23:33;;;;;;;26.55;15.38;;;13.50;89.90;;;;;;5075146;28;20063;-60
2022/10/20 07:26:00;;;;;;;47.05;15.05;;;13.50;89.90;;;;;;5076239;28;20036;-60
2022/10/20 07:28:26;;;;;;;41.63;15.65;;;13.50;89.90;;;;;;5076303;28;20468;-62
2022/10/20 07:30:51;;;;;;;37.72;15.52;;;13.50;89.90;;;;;;5076019;28;20059;-62
2022/10/20 07:33:17;;;;;;;49.33;16.67;;;13.50;90.00;;;;;;5078728;28;20036;-61
2022/10/20 07:35:42;;;;;;;46.75;16.85;;;13.50;90.00;;;;;;5077582;28;20055;-61
2022/10/20 07:38:08;;;;;;;42.78;16.30;;;13.50;90.00;;;;;;5076736;28;20716;-61
2022/10/20 07:40:34;;;;;;;24.05;14.35;;;13.50;90.00;;;;;;5075211;28;20034;-60
2022/10/20 07:42:59;;;;;;;38.85;15.45;;;13.40;90.10;;;;;;5075090;28;20048;-61
2022/10/20 07:45:25;;;;;;;31.55;16.73;;;13.40;90.20;;;;;;5075494;28;20756;-61
2022/10/20 07:47:51;;;;;;;27.58;16.20;;;13.40;90.30;;;;;;5077142;28;20408;-60
2022/10/20 07:50:17;;;;;;;23.95;15.32;;;13.40;90.40;;;;;;5075504;28;20025;-61
2022/10/20 07:52:43;;;;;;;51.28;16.33;;;13.40;90.50;;;;;;5076456;28;20028;-61
2022/10/20 07:55:08;;;;;;;20.58;14.45;;;13.40;90.60;;;;;;5075766;28;20039;-60
2022/10/20 07:57:34;;;;;;;25.98;15.45;;;13.50;90.60;;;;;;5075916;28;20032;-62
2022/10/20 07:59:59;;;;;;;22.75;15.18;;;13.50;90.60;;;;;;5077337;28;20443;-61
2022/10/20 08:02:25;;;;;;;37.75;16.85;;;13.60;90.60;;;;;;5074832;28;20036;-61
2022/10/20 08:04:50;;;;;;;36.80;16.45;;;13.60;90.60;;;;;;5077822;28;20040;-61
2022/10/20 08:07:16;;;;;;;28.88;17.27;;;13.60;90.50;;;;;;5076489;28;20515;-60
2022/10/20 08:09:42;;;;;;;32.22;16.27;;;13.60;90.50;;;;;;5077778;28;20466;-62
2022/10/20 08:12:07;;;;;;;28.45;16.17;;;13.70;90.60;;;;;;5076873;28;20064;-61
2022/10/20 08:14:35;;;;;;;28.58;16.17;;;13.70;90.60;;;;;;5078565;28;20036;-61
2022/10/20 08:17:01;;;;;;;30.92;15.90;;;13.70;90.60;;;;;;5078137;28;20044;-62
2022/10/20 08:19:27;;;;;;;25.85;16.48;;;13.80;90.60;;;;;;5077202;28;20036;-62
2022/10/20 08:21:53;;;;;;;27.85;15.63;;;13.80;90.60;;;;;;5079383;28;20024;-61
2022/10/20 08:24:18;;;;;;;25.33;14.52;;;13.90;90.60;;;;;;5076958;28;20040;-61
2022/10/20 08:26:44;;;;;;;26.45;16.08;;;13.90;90.50;;;;;;5076445;28;20098;-61
2022/10/20 08:29:11;;;;;;;29.17;15.73;;;13.90;90.50;;;;;;5076449;28;20499;-62
2022/10/20 08:31:37;;;;;;;26.20;16.45;;;13.90;90.50;;;;;;5076713;28;20227;-60
2022/10/20 08:34:03;;;;;;;32.67;16.85;;;14.00;90.50;;;;;;5077245;28;20032;-61
2022/10/20 08:36:29;;;;;;;32.35;16.33;;;14.00;90.50;;;;;;5075206;28;20036;-60
2022/10/20 08:38:57;;;;;;;24.42;16.23;;;14.00;90.50;;;;;;5075325;28;20028;-61
2022/10/20 08:41:27;;;;;;;30.23;16.50;;;14.00;90.50;;;;;;5074936;28;20043;-62
2022/10/20 08:43:55;;;;;;;39.15;16.85;;;14.10;90.60;;;;;;5074365;27;20036;-61
2022/10/20 08:46:27;;;;;;;38.60;17.10;;;14.10;90.60;;;;;;5077635;28;20028;-60
2022/10/20 08:48:53;;;;;;;24.17;15.15;;;14.10;90.60;;;;;;5078005;28;20051;-62
2022/10/20 08:51:22;;;;;;;27.83;15.90;;;14.10;90.60;;;;;;5079814;28;20496;-62
2022/10/20 08:53:51;;;;;;;28.13;16.95;;;14.10;90.70;;;;;;5080256;28;20040;-62
2022/10/20 08:56:21;;;;;;;24.92;15.90;;;14.10;91.10;;;;;;5075315;28;20115;-61
2022/10/20 08:58:47;;;;;;;33.95;17.83;;;14.20;90.80;;;;;;5075934;28;20063;-62
2022/10/20 09:01:20;;;;;;;30.25;17.23;;;14.20;90.80;;;;;;5077620;28;20044;-62
2022/10/20 09:03:51;;;;;;;33.13;17.40;;;14.20;90.70;;;;;;5078855;28;20040;-60
2022/10/20 09:06:17;;;;;;;27.27;17.08;;;14.30;90.70;;;;;;5078700;28;20048;-60
2022/10/20 09:08:43;;;;;;;30.83;17.75;;;14.20;90.60;;;;;;5077869;28;20393;-61
2022/10/20 09:11:17;;;;;;;32.17;18.05;;;14.30;90.80;;;;;;5078617;28;20032;-62
2022/10/20 09:13:43;;;;;;;28.52;17.60;;;14.30;90.90;;;;;;5078832;28;20082;-62
2022/10/20 09:16:22;;;;;;;37.95;18.13;;;14.30;90.80;;;;;;5077956;28;20028;-60
2022/10/20 09:18:54;;;;;;;32.22;17.63;;;14.40;90.90;;;;;;5075372;28;20032;-62
2022/10/20 09:21:21;;;;;;;28.98;18.23;;;14.40;90.80;;;;;;5077231;28;20028;-61
2022/10/20 09:23:53;;;;;;;31.70;18.05;;;14.40;90.80;;;;;;5075322;28;20852;-61
2022/10/20 09:26:32;;;;;;;28.02;16.80;;;14.50;91.00;;;;;;5075587;28;20063;-60
2022/10/20 09:29:06;;;;;;;36.80;18.52;;;14.60;91.00;;;;;;5073982;28;20495;-61
2022/10/20 09:31:35;;;;;;;36.63;18.02;;;14.60;90.90;;;;;;5077678;28;20055;-58
2022/10/20 09:34:01;;;;;;;27.63;16.75;;;14.60;90.60;;;;;;5075038;28;20039;-62
2022/10/20 09:36:32;;;;;;;31.27;17.88;;;14.70;90.60;;;;;;5076033;28;20407;-60
2022/10/20 09:38:58;;;;;;;30.73;17.75;;;14.70;90.70;;;;;;5075159;28;20035;-62
2022/10/20 09:41:28;;;;;;;31.98;18.83;;;14.70;90.60;;;;;;5076743;28;20032;-61
2022/10/20 09:43:58;;;;;;;30.98;17.52;;;14.70;90.60;;;;;;5075473;28;20036;-62
2022/10/20 09:46:47;;;;;;;28.45;17.35;;;14.70;90.60;;;;;;5076965;28;21018;-61
2022/10/20 09:49:35;;;;;;;26.92;16.90;;;14.70;90.80;;;;;;5075795;28;20041;-61
2022/10/20 09:52:02;;;;;;;27.60;17.17;;;14.70;90.90;;;;;;5074909;28;20557;-60
2022/10/20 09:54:29;;;;;;;27.75;16.50;;;14.80;90.80;;;;;;5076110;28;20074;-62
2022/10/20 09:57:04;;;;;;;26.77;17.00;;;14.80;90.70;;;;;;5074372;28;20500;-60
2022/10/20 09:59:43;;;;;;;29.88;16.88;;;14.80;90.70;;;;;;5076618;28;20101;-62
2022/10/20 10:02:14;;;;;;;26.75;16.85;;;14.90;90.60;;;;;;5077793;28;20039;-61
2022/10/20 10:04:45;;;;;;;23.35;16.35;;;14.90;90.50;;;;;;5077606;28;20449;-61
2022/10/20 10:07:26;;;;;;;24.10;15.30;;;15.00;90.50;;;;;;5075255;28;20048;-61
2022/10/20 10:09:58;;;;;;;20.23;13.98;;;15.00;90.50;;;;;;5076678;28;20037;-61
2022/10/20 10:12:25;;;;;;;23.48;15.25;;;15.00;90.40;;;;;;5076013;28;20490;-62
2022/10/20 10:14:57;;;;;;;27.00;15.68;;;15.10;90.40;;;;;;5074011;28;20055;-62
2022/10/20 10:17:36;;;;;;;24.45;15.82;;;15.20;90.40;;;;;;5076042;28;20488;-60
2022/10/20 10:20:06;;;;;;;22.45;14.32;;;15.30;90.30;;;;;;5074341;28;20032;-62
2022/10/20 10:22:32;;;;;;;22.83;15.45;;;15.30;90.20;;;;;;5074286;28;20655;-61
2022/10/20 10:24:59;;;;;;;22.42;14.93;;;15.40;90.20;;;;;;5074755;28;20076;-62
2022/10/20 10:27:31;;;;;;;22.40;14.50;;;15.50;90.50;;;;;;5075214;28;20128;-62
2022/10/20 10:30:17;;;;;;;24.17;14.40;;;15.60;90.00;;;;;;5074987;28;21466;-61
2022/10/20 10:32:44;;;;;;;22.02;14.10;;;15.70;90.00;;;;;;5078034;28;20036;-62
2022/10/20 10:35:27;;;;;;;23.90;15.23;;;15.70;89.70;;;;;;5077624;28;20040;-61
2022/10/20 10:37:54;;;;;;;23.80;15.68;;;15.80;89.20;;;;;;5078744;28;20245;-61
2022/10/20 10:40:58;;;;;;;25.83;15.40;;;15.90;89.00;;;;;;5077754;28;20028;-62
2022/10/20 10:43:33;;;;;;;22.00;13.80;;;16.00;88.60;;;;;;5055512;28;20040;-62
2022/10/20 10:45:58;;;;;;;23.25;14.80;;;16.00;89.30;;;;;;5079101;28;20040;-60
2022/10/20 10:48:26;;;;;;;24.17;15.10;;;16.00;88.40;;;;;;5077228;28;20043;-62
2022/10/20 10:51:05;;;;;;;25.58;17.58;;;16.00;88.00;;;;;;5077520;28;20032;-61
2022/10/20 10:53:50;;;;;;;27.13;18.02;;;16.10;87.60;;;;;;5077992;28;20074;-61
2022/10/20 10:57:09;;;;;;;21.67;15.90;;;16.10;87.40;;;;;;5077422;28;20526;-62
2022/10/20 10:59:39;;;;;;;23.23;14.75;;;16.10;87.30;;;;;;5074996;28;20453;-61
2022/10/20 11:02:30;;;;;;;24.10;14.82;;;16.10;87.30;;;;;;5079633;28;20048;-61
2022/10/20 11:05:14;;;;;;;27.23;15.25;;;16.00;87.00;;;;;;5079136;28;20575;-62
2022/10/20 11:08:22;;;;;;;25.33;15.13;;;16.00;87.30;;;;;;5081596;28;20035;-61
2022/10/20 11:11:05;;;;;;;26.10;15.77;;;16.10;86.90;;;;;;5070009;28;20028;-62
2022/10/20 11:14:01;;;;;;;21.83;14.45;;;16.00;87.00;;;;;;5079889;28;20115;-62
2022/10/20 11:16:51;;;;;;;23.48;15.10;;;16.10;87.20;;;;;;5078734;28;20029;-62
2022/10/20 11:19:17;;;;;;;24.15;14.85;;;16.10;87.20;;;;;;5076971;28;20039;-62
2022/10/20 11:22:01;;;;;;;23.13;14.60;;;16.10;87.30;;;;;;5079156;28;20032;-62
2022/10/20 11:24:48;;;;;;;21.70;14.02;;;16.10;87.10;;;;;;5079139;28;20619;-62
2022/10/20 11:27:23;;;;;;;21.42;13.88;;;16.20;88.00;;;;;;5075542;28;20232;-62
2022/10/20 11:29:53;;;;;;;22.92;14.82;;;16.20;87.20;;;;;;5076345;28;20043;-62
2022/10/20 11:32:41;;;;;;;22.45;15.20;;;16.30;87.40;;;;;;5077993;28;20491;-62
2022/10/20 11:35:26;;;;;;;24.10;16.20;;;16.30;87.30;;;;;;5076308;28;20056;-62
2022/10/20 11:38:36;;;;;;;22.38;15.70;;;16.40;86.80;;;;;;5076677;28;20037;-62
2022/10/20 11:41:05;;;;;;;25.35;14.55;;;16.50;86.60;;;;;;5057807;28;20496;-60
2022/10/20 11:43:33;;;;;;;25.38;15.80;;;16.40;86.70;;;;;;5077902;28;20044;-62
2022/10/20 11:46:02;;;;;;;22.48;14.93;;;16.40;86.60;;;;;;5075465;28;20496;-59
2022/10/20 11:48:51;;;;;;;24.15;16.23;;;16.40;86.90;;;;;;5078319;28;20078;-61
2022/10/20 11:51:28;;;;;;;22.23;15.10;;;16.40;86.90;;;;;;5077090;28;20603;-62
2022/10/20 11:54:13;;;;;;;30.08;14.63;;;16.50;86.70;;;;;;5078094;28;20173;-62
2022/10/20 11:56:47;;;;;;;22.70;14.87;;;16.50;86.80;;;;;;5077405;28;20031;-62
2022/10/20 11:59:24;;;;;;;20.15;14.55;;;16.50;86.70;;;;;;5077215;28;21408;-61
2022/10/20 12:02:02;;;;;;;22.55;15.10;;;16.50;86.50;;;;;;5079868;28;20043;-61
2022/10/20 12:04:44;;;;;;;21.23;14.40;;;16.50;86.80;;;;;;5078832;28;20039;-61
2022/10/20 12:07:43;;;;;;;18.83;14.13;;;16.50;86.40;;;;;;5076384;28;20136;-62
2022/10/20 12:10:26;;;;;;;22.42;14.43;;;16.50;86.50;;;;;;5076198;28;20036;-62
2022/10/20 12:13:20;;;;;;;19.58;13.15;;;16.60;86.40;;;;;;5070390;28;20032;-62
2022/10/20 12:15:48;;;;;;;21.45;13.25;;;16.60;86.70;;;;;;5076237;28;20043;-62
2022/10/20 12:18:38;;;;;;;17.02;12.25;;;16.60;86.60;;;;;;5075844;28;20056;-62
2022/10/20 12:21:06;;;;;;;18.38;12.15;;;16.60;86.70;;;;;;5075266;28;20570;-61
2022/10/20 12:23:53;;;;;;;16.48;12.43;;;16.70;86.70;;;;;;5077205;28;20043;-61
2022/10/20 12:26:33;;;;;;;15.90;11.82;;;16.80;86.70;;;;;;5077845;28;20040;-62
2022/10/20 12:29:02;;;;;;;16.00;12.35;;;16.80;86.60;;;;;;5076024;28;20479;-62
2022/10/20 12:32:05;;;;;;;18.95;12.60;;;16.90;86.30;;;;;;5077708;28;20170;-62
2022/10/20 12:34:41;;;;;;;20.75;12.27;;;17.00;85.60;;;;;;5080768;28;20044;-62
2022/10/20 12:37:23;;;;;;;17.92;12.15;;;17.00;85.90;;;;;;5077015;28;20093;-62
2022/10/20 12:39:50;;;;;;;18.25;12.18;;;17.00;85.80;;;;;;5077224;28;20499;-62
2022/10/20 12:42:29;;;;;;;17.40;12.77;;;17.10;86.00;;;;;;5077283;28;20040;-62
2022/10/20 12:45:02;;;;;;;18.42;12.50;;;17.10;85.50;;;;;;5074939;28;20546;-62
2022/10/20 12:47:30;;;;;;;18.65;12.55;;;17.20;85.50;;;;;;5076897;28;20036;-62